Aviation Digital Data Service (ADDS)

Output produced by METARs form (0705 UTC 27 February 2020)
found at http://www.aviationweather.gov/metar/data/
 
METAR text: SBCT 270700Z 09004KT CAVOK 13/13 Q1016
Conditions at: SBCT (CURITIBA/AFONSO , BR) observed 0700 UTC 27 February 2020
Temperature: 13.0°C (55°F)
Dewpoint: 13.0°C (55°F) [RH = 100%]
Pressure (altimeter): 30.00 inches Hg (1016.0 mb)
Winds: from the E (90 degrees) at 5 MPH (4 knots; 2.1 m/s)
Visibility: 6 or more miles (10+ km)
Ceiling: ceiling and visibility are OK
Clouds: unknown
Weather: no significant weather observed at this time

METAR text: SBCT 270600Z 11004KT CAVOK 13/13 Q1016
Conditions at: SBCT (CURITIBA/AFONSO , BR) observed 0600 UTC 27 February 2020
Temperature: 13.0°C (55°F)
Dewpoint: 13.0°C (55°F) [RH = 100%]
Pressure (altimeter): 30.00 inches Hg (1016.0 mb)
Winds: from the ESE (110 degrees) at 5 MPH (4 knots; 2.1 m/s)
Visibility: 6 or more miles (10+ km)
Ceiling: ceiling and visibility are OK
Clouds: unknown
Weather: no significant weather observed at this time

METAR text: SBCT 270500Z 10004KT CAVOK 14/14 Q1017
Conditions at: SBCT (CURITIBA/AFONSO , BR) observed 0500 UTC 27 February 2020
Temperature: 14.0°C (57°F)
Dewpoint: 14.0°C (57°F) [RH = 100%]
Pressure (altimeter): 30.03 inches Hg (1017.0 mb)
Winds: from the E (100 degrees) at 5 MPH (4 knots; 2.1 m/s)
Visibility: 6 or more miles (10+ km)
Ceiling: ceiling and visibility are OK
Clouds: unknown
Weather: no significant weather observed at this time

METAR text: SBCT 270400Z 13005KT 9999 BKN030 OVC060 14/14 Q1017
Conditions at: SBCT (CURITIBA/AFONSO , BR) observed 0400 UTC 27 February 2020
Temperature: 14.0°C (57°F)
Dewpoint: 14.0°C (57°F) [RH = 100%]
Pressure (altimeter): 30.03 inches Hg (1017.0 mb)
Winds: from the SE (130 degrees) at 6 MPH (5 knots; 2.6 m/s)
Visibility: 6 or more miles (10+ km)
Ceiling: 3000 feet AGL
Clouds: broken clouds at 3000 feet AGL
overcast cloud deck at 6000 feet AGL
Weather: no significant weather observed at this time

METAR text: SBCT 270300Z 10005KT 9999 FEW010 OVC030 14/14 Q1017
Conditions at: SBCT (CURITIBA/AFONSO , BR) observed 0300 UTC 27 February 2020
Temperature: 14.0°C (57°F)
Dewpoint: 14.0°C (57°F) [RH = 100%]
Pressure (altimeter): 30.03 inches Hg (1017.0 mb)
Winds: from the E (100 degrees) at 6 MPH (5 knots; 2.6 m/s)
Visibility: 6 or more miles (10+ km)
Ceiling: 3000 feet AGL
Clouds: few clouds at 1000 feet AGL
overcast cloud deck at 3000 feet AGL
Weather: no significant weather observed at this time

METAR text: SBCT 270200Z 12007KT 9999 BKN010 OVC020 15/15 Q1017
Conditions at: SBCT (CURITIBA/AFONSO , BR) observed 0200 UTC 27 February 2020
Temperature: 15.0°C (59°F)
Dewpoint: 15.0°C (59°F) [RH = 100%]
Pressure (altimeter): 30.03 inches Hg (1017.0 mb)
Winds: from the ESE (120 degrees) at 8 MPH (7 knots; 3.6 m/s)
Visibility: 6 or more miles (10+ km)
Ceiling: 1000 feet AGL
Clouds: broken clouds at 1000 feet AGL
overcast cloud deck at 2000 feet AGL
Weather: no significant weather observed at this time

METAR text: SBCT 270100Z 11011KT 8000 -RADZ OVC005 15/15 Q1015
Conditions at: SBCT (CURITIBA/AFONSO , BR) observed 0100 UTC 27 February 2020
Temperature: 15.0°C (59°F)
Dewpoint: 15.0°C (59°F) [RH = 100%]
Pressure (altimeter): 29.97 inches Hg (1015.0 mb)
Winds: from the ESE (110 degrees) at 13 MPH (11 knots; 5.7 m/s)
Visibility: 5 miles ( 8 km)
Ceiling: 500 feet AGL
Clouds: overcast cloud deck at 500 feet AGL
Weather: -RA -DZ  (light rain, light drizzle)

METAR text: SBCT 270000Z 13009KT 8000 -RA OVC006 17/17 Q1015 RERA
Conditions at: SBCT (CURITIBA/AFONSO , BR) observed 0000 UTC 27 February 2020
Temperature: 17.0°C (63°F)
Dewpoint: 17.0°C (63°F) [RH = 100%]
Pressure (altimeter): 29.97 inches Hg (1015.0 mb)
Winds: from the SE (130 degrees) at 10 MPH (9 knots; 4.6 m/s)
Visibility: 5 miles ( 8 km)
Ceiling: 600 feet AGL
Clouds: overcast cloud deck at 600 feet AGL
Weather: -RA  (light rain)

METAR text: SBCT 262320Z 13010G20KT 6000 RA BKN005 BKN009 18/18 Q1014
Conditions at: SBCT (CURITIBA/AFONSO , BR) observed 2320 UTC 26 February 2020
Temperature: 18.0°C (64°F)
Dewpoint: 18.0°C (64°F) [RH = 100%]
Pressure (altimeter): 29.94 inches Hg (1014.0 mb)
Winds: from the SE (130 degrees) at 12 MPH (10 knots; 5.1 m/s)
gusting to 23 MPH (20 knots; 10.3 m/s)
Visibility: 4 miles ( 6 km)
Ceiling: 500 feet AGL
Clouds: broken clouds at 500 feet AGL
broken clouds at 900 feet AGL
Weather: RA  (moderate rain)

METAR text: SBCT 262300Z 11007KT 9999 SCT006 BKN010 BKN070 20/20 Q1013
Conditions at: SBCT (CURITIBA/AFONSO , BR) observed 2300 UTC 26 February 2020
Temperature: 20.0°C (68°F)
Dewpoint: 20.0°C (68°F) [RH = 100%]
Pressure (altimeter): 29.91 inches Hg (1013.0 mb)
Winds: from the ESE (110 degrees) at 8 MPH (7 knots; 3.6 m/s)
Visibility: 6 or more miles (10+ km)
Ceiling: 1000 feet AGL
Clouds: scattered clouds at 600 feet AGL
broken clouds at 1000 feet AGL
broken clouds at 7000 feet AGL
Weather: no significant weather observed at this time

METAR text: SBCT 262200Z 17005KT 9999 BKN017 BKN070 21/18 Q1012
Conditions at: SBCT (CURITIBA/AFONSO , BR) observed 2200 UTC 26 February 2020
Temperature: 21.0°C (70°F)
Dewpoint: 18.0°C (64°F) [RH = 83%]
Pressure (altimeter): 29.88 inches Hg (1012.0 mb)
Winds: from the S (170 degrees) at 6 MPH (5 knots; 2.6 m/s)
Visibility: 6 or more miles (10+ km)
Ceiling: 1700 feet AGL
Clouds: broken clouds at 1700 feet AGL
broken clouds at 7000 feet AGL
Weather: no significant weather observed at this time

METAR text: SBCT 262100Z 20007KT 9999 FEW007 BKN045 BKN070 22/18 Q1011
Conditions at: SBCT (CURITIBA/AFONSO , BR) observed 2100 UTC 26 February 2020
Temperature: 22.0°C (72°F)
Dewpoint: 18.0°C (64°F) [RH = 78%]
Pressure (altimeter): 29.85 inches Hg (1011.0 mb)
Winds: from the SSW (200 degrees) at 8 MPH (7 knots; 3.6 m/s)
Visibility: 6 or more miles (10+ km)
Ceiling: 4500 feet AGL
Clouds: few clouds at 700 feet AGL
broken clouds at 4500 feet AGL
broken clouds at 7000 feet AGL
Weather: no significant weather observed at this time

METAR text: SBCT 262000Z 22009KT 9999 BKN023 BKN083 22/17 Q1011
Conditions at: SBCT (CURITIBA/AFONSO , BR) observed 2000 UTC 26 February 2020
Temperature: 22.0°C (72°F)
Dewpoint: 17.0°C (63°F) [RH = 73%]
Pressure (altimeter): 29.85 inches Hg (1011.0 mb)
Winds: from the SW (220 degrees) at 10 MPH (9 knots; 4.6 m/s)
Visibility: 6 or more miles (10+ km)
Ceiling: 2300 feet AGL
Clouds: broken clouds at 2300 feet AGL
broken clouds at 8300 feet AGL
Weather: no significant weather observed at this time

METAR text: SBCT 261900Z 21008KT 9999 SCT010 BKN083 21/18 Q1011
Conditions at: SBCT (CURITIBA/AFONSO , BR) observed 1900 UTC 26 February 2020
Temperature: 21.0°C (70°F)
Dewpoint: 18.0°C (64°F) [RH = 83%]
Pressure (altimeter): 29.85 inches Hg (1011.0 mb)
Winds: from the SSW (210 degrees) at 9 MPH (8 knots; 4.1 m/s)
Visibility: 6 or more miles (10+ km)
Ceiling: 8300 feet AGL
Clouds: scattered clouds at 1000 feet AGL
broken clouds at 8300 feet AGL
Weather: no significant weather observed at this time

METAR text: SBCT 261800Z 23007KT 9999 BKN014 BKN035 22/19 Q1011
Conditions at: SBCT (CURITIBA/AFONSO , BR) observed 1800 UTC 26 February 2020
Temperature: 22.0°C (72°F)
Dewpoint: 19.0°C (66°F) [RH = 83%]
Pressure (altimeter): 29.85 inches Hg (1011.0 mb)
Winds: from the SW (230 degrees) at 8 MPH (7 knots; 3.6 m/s)
Visibility: 6 or more miles (10+ km)
Ceiling: 1400 feet AGL
Clouds: broken clouds at 1400 feet AGL
broken clouds at 3500 feet AGL
Weather: no significant weather observed at this time

METAR text: SBCT 261700Z 27008KT 9999 FEW008 BKN014 BKN033 22/20 Q1010
Conditions at: SBCT (CURITIBA/AFONSO , BR) observed 1700 UTC 26 February 2020
Temperature: 22.0°C (72°F)
Dewpoint: 20.0°C (68°F) [RH = 88%]
Pressure (altimeter): 29.82 inches Hg (1010.0 mb)
Winds: from the W (270 degrees) at 9 MPH (8 knots; 4.1 m/s)
Visibility: 6 or more miles (10+ km)
Ceiling: 1400 feet AGL
Clouds: few clouds at 800 feet AGL
broken clouds at 1400 feet AGL
broken clouds at 3300 feet AGL
Weather: no significant weather observed at this time

METAR text: SBCT 261600Z 26009KT 240V320 9999 BKN014 BKN035 23/19 Q1010
Conditions at: SBCT (CURITIBA/AFONSO , BR) observed 1600 UTC 26 February 2020
Temperature: 23.0°C (73°F)
Dewpoint: 19.0°C (66°F) [RH = 78%]
Pressure (altimeter): 29.82 inches Hg (1010.0 mb)
Winds: from the W (260 degrees) at 10 MPH (9 knots; 4.6 m/s)
Visibility: 6 or more miles (10+ km)
Ceiling: 1400 feet AGL
Clouds: broken clouds at 1400 feet AGL
broken clouds at 3500 feet AGL
Weather: no significant weather observed at this time

METAR text: SBCT 261500Z 27012KT 9000 FEW006 BKN013 BKN030 21/20 Q1010
Conditions at: SBCT (CURITIBA/AFONSO , BR) observed 1500 UTC 26 February 2020
Temperature: 21.0°C (70°F)
Dewpoint: 20.0°C (68°F) [RH = 94%]
Pressure (altimeter): 29.82 inches Hg (1010.0 mb)
Winds: from the W (270 degrees) at 14 MPH (12 knots; 6.2 m/s)
Visibility: 6 miles ( 9 km)
Ceiling: 1300 feet AGL
Clouds: few clouds at 600 feet AGL
broken clouds at 1300 feet AGL
broken clouds at 3000 feet AGL
Weather: no significant weather observed at this time

METAR text: SBCT 261400Z 30007KT 3000 -RA BR SCT006 OVC009 21/21 Q1010
Conditions at: SBCT (CURITIBA/AFONSO , BR) observed 1400 UTC 26 February 2020
Temperature: 21.0°C (70°F)
Dewpoint: 21.0°C (70°F) [RH = 100%]
Pressure (altimeter): 29.82 inches Hg (1010.0 mb)
Winds: from the WNW (300 degrees) at 8 MPH (7 knots; 3.6 m/s)
Visibility: 1.86 miles (2.99 km)
Ceiling: 900 feet AGL
Clouds: scattered clouds at 600 feet AGL
overcast cloud deck at 900 feet AGL
Weather: -RA BR  (light rain, mist)

METAR text: SBCT 261340Z 31008KT 280V350 3000 -RA BR OVC007 21/21 Q1010
Conditions at: SBCT (CURITIBA/AFONSO , BR) observed 1340 UTC 26 February 2020
Temperature: 21.0°C (70°F)
Dewpoint: 21.0°C (70°F) [RH = 100%]
Pressure (altimeter): 29.82 inches Hg (1010.0 mb)
Winds: from the NW (310 degrees) at 9 MPH (8 knots; 4.1 m/s)
Visibility: 1.86 miles (2.99 km)
Ceiling: 700 feet AGL
Clouds: overcast cloud deck at 700 feet AGL
Weather: -RA BR  (light rain, mist)

METAR text: SBCT 261300Z 32013KT 9999 FEW007 BKN012 BKN030 22/20 Q1010
Conditions at: SBCT (CURITIBA/AFONSO , BR) observed 1300 UTC 26 February 2020
Temperature: 22.0°C (72°F)
Dewpoint: 20.0°C (68°F) [RH = 88%]
Pressure (altimeter): 29.82 inches Hg (1010.0 mb)
Winds: from the NW (320 degrees) at 15 MPH (13 knots; 6.7 m/s)
Visibility: 6 or more miles (10+ km)
Ceiling: 1200 feet AGL
Clouds: few clouds at 700 feet AGL
broken clouds at 1200 feet AGL
broken clouds at 3000 feet AGL
Weather: no significant weather observed at this time

METAR text: SBCT 261200Z 35006KT 4000 -RA BR FEW004 BKN010 BKN025 20/20 Q1010 RERA RERA
Conditions at: SBCT (CURITIBA/AFONSO , BR) observed 1200 UTC 26 February 2020
Temperature: 20.0°C (68°F)
Dewpoint: 20.0°C (68°F) [RH = 100%]
Pressure (altimeter): 29.82 inches Hg (1010.0 mb)
Winds: from the N (350 degrees) at 7 MPH (6 knots; 3.1 m/s)
Visibility: 2.49 miles (4.01 km)
Ceiling: 1000 feet AGL
Clouds: few clouds at 400 feet AGL
broken clouds at 1000 feet AGL
broken clouds at 2500 feet AGL
Weather: -RA BR RA  (light rain, mist, moderate rain)

METAR text: SBCT 261117Z 34006KT 2500 RA BR FEW007 OVC012 20/20 Q1011
Conditions at: SBCT (CURITIBA/AFONSO , BR) observed 1117 UTC 26 February 2020
Temperature: 20.0°C (68°F)
Dewpoint: 20.0°C (68°F) [RH = 100%]
Pressure (altimeter): 29.85 inches Hg (1011.0 mb)
Winds: from the NNW (340 degrees) at 7 MPH (6 knots; 3.1 m/s)
Visibility: 1.55 miles (2.49 km)
Ceiling: 1200 feet AGL
Clouds: few clouds at 700 feet AGL
overcast cloud deck at 1200 feet AGL
Weather: RA BR  (moderate rain, mist)

METAR text: SBCT 261100Z 35007KT 310V010 5000 -RA BR FEW008 BKN012 OVC025 20/20 Q1011
Conditions at: SBCT (CURITIBA/AFONSO , BR) observed 1100 UTC 26 February 2020
Temperature: 20.0°C (68°F)
Dewpoint: 20.0°C (68°F) [RH = 100%]
Pressure (altimeter): 29.85 inches Hg (1011.0 mb)
Winds: from the N (350 degrees) at 8 MPH (7 knots; 3.6 m/s)
Visibility: 3 miles ( 5 km)
Ceiling: 1200 feet AGL
Clouds: few clouds at 800 feet AGL
broken clouds at 1200 feet AGL
overcast cloud deck at 2500 feet AGL
Weather: -RA BR  (light rain, mist)

METAR text: SBCT 261000Z 32004KT 290V350 9999 -RA BKN009 OVC020 20/20 Q1011
Conditions at: SBCT (CURITIBA/AFONSO , BR) observed 1000 UTC 26 February 2020
Temperature: 20.0°C (68°F)
Dewpoint: 20.0°C (68°F) [RH = 100%]
Pressure (altimeter): 29.85 inches Hg (1011.0 mb)
Winds: from the NW (320 degrees) at 5 MPH (4 knots; 2.1 m/s)
Visibility: 6 or more miles (10+ km)
Ceiling: 900 feet AGL
Clouds: broken clouds at 900 feet AGL
overcast cloud deck at 2000 feet AGL
Weather: -RA  (light rain)

METAR text: SBCT 260900Z 07003KT 9999 -RA BKN009 BKN050 20/20 Q1010
Conditions at: SBCT (CURITIBA/AFONSO , BR) observed 0900 UTC 26 February 2020
Temperature: 20.0°C (68°F)
Dewpoint: 20.0°C (68°F) [RH = 100%]
Pressure (altimeter): 29.82 inches Hg (1010.0 mb)
Winds: from the ENE (70 degrees) at 3 MPH (3 knots; 1.5 m/s)
Visibility: 6 or more miles (10+ km)
Ceiling: 900 feet AGL
Clouds: broken clouds at 900 feet AGL
broken clouds at 5000 feet AGL
Weather: -RA  (light rain)

METAR text: SBCT 260800Z 03004KT 9999 BKN009 BKN050 20/20 Q1010
Conditions at: SBCT (CURITIBA/AFONSO , BR) observed 0800 UTC 26 February 2020
Temperature: 20.0°C (68°F)
Dewpoint: 20.0°C (68°F) [RH = 100%]
Pressure (altimeter): 29.82 inches Hg (1010.0 mb)
Winds: from the NNE (30 degrees) at 5 MPH (4 knots; 2.1 m/s)
Visibility: 6 or more miles (10+ km)
Ceiling: 900 feet AGL
Clouds: broken clouds at 900 feet AGL
broken clouds at 5000 feet AGL
Weather: no significant weather observed at this time

METAR text: SBCT 260700Z 04003KT 9999 SCT004 BKN009 BKN060 20/20 Q1010
Conditions at: SBCT (CURITIBA/AFONSO , BR) observed 0700 UTC 26 February 2020
Temperature: 20.0°C (68°F)
Dewpoint: 20.0°C (68°F) [RH = 100%]
Pressure (altimeter): 29.82 inches Hg (1010.0 mb)
Winds: from the NE (40 degrees) at 3 MPH (3 knots; 1.5 m/s)
Visibility: 6 or more miles (10+ km)
Ceiling: 900 feet AGL
Clouds: scattered clouds at 400 feet AGL
broken clouds at 900 feet AGL
broken clouds at 6000 feet AGL
Weather: no significant weather observed at this time

METAR text: SBCT 260600Z 02005KT 350V050 9999 SCT004 BKN009 BKN060 20/20 Q1011
Conditions at: SBCT (CURITIBA/AFONSO , BR) observed 0600 UTC 26 February 2020
Temperature: 20.0°C (68°F)
Dewpoint: 20.0°C (68°F) [RH = 100%]
Pressure (altimeter): 29.85 inches Hg (1011.0 mb)
Winds: from the NNE (20 degrees) at 6 MPH (5 knots; 2.6 m/s)
Visibility: 6 or more miles (10+ km)
Ceiling: 900 feet AGL
Clouds: scattered clouds at 400 feet AGL
broken clouds at 900 feet AGL
broken clouds at 6000 feet AGL
Weather: no significant weather observed at this time

METAR text: SBCT 260500Z 04005KT 8000 -RA SCT005 BKN009 BKN060 20/20 Q1012
Conditions at: SBCT (CURITIBA/AFONSO , BR) observed 0500 UTC 26 February 2020
Temperature: 20.0°C (68°F)
Dewpoint: 20.0°C (68°F) [RH = 100%]
Pressure (altimeter): 29.88 inches Hg (1012.0 mb)
Winds: from the NE (40 degrees) at 6 MPH (5 knots; 2.6 m/s)
Visibility: 5 miles ( 8 km)
Ceiling: 900 feet AGL
Clouds: scattered clouds at 500 feet AGL
broken clouds at 900 feet AGL
broken clouds at 6000 feet AGL
Weather: -RA  (light rain)

METAR text: SBCT 260400Z 04004KT 360V070 9000 OVC004 20/20 Q1012
Conditions at: SBCT (CURITIBA/AFONSO , BR) observed 0400 UTC 26 February 2020
Temperature: 20.0°C (68°F)
Dewpoint: 20.0°C (68°F) [RH = 100%]
Pressure (altimeter): 29.88 inches Hg (1012.0 mb)
Winds: from the NE (40 degrees) at 5 MPH (4 knots; 2.1 m/s)
Visibility: 6 miles ( 9 km)
Ceiling: 400 feet AGL
Clouds: overcast cloud deck at 400 feet AGL
Weather: no significant weather observed at this time

METAR text: SBCT 260300Z 02007KT 9999 OVC003 20/20 Q1013
Conditions at: SBCT (CURITIBA/AFONSO , BR) observed 0300 UTC 26 February 2020
Temperature: 20.0°C (68°F)
Dewpoint: 20.0°C (68°F) [RH = 100%]
Pressure (altimeter): 29.91 inches Hg (1013.0 mb)
Winds: from the NNE (20 degrees) at 8 MPH (7 knots; 3.6 m/s)
Visibility: 6 or more miles (10+ km)
Ceiling: 300 feet AGL
Clouds: overcast cloud deck at 300 feet AGL
Weather: no significant weather observed at this time

METAR text: SBCT 260200Z 04006KT 9999 SCT001 BKN006 20/20 Q1014
Conditions at: SBCT (CURITIBA/AFONSO , BR) observed 0200 UTC 26 February 2020
Temperature: 20.0°C (68°F)
Dewpoint: 20.0°C (68°F) [RH = 100%]
Pressure (altimeter): 29.94 inches Hg (1014.0 mb)
Winds: from the NE (40 degrees) at 7 MPH (6 knots; 3.1 m/s)
Visibility: 6 or more miles (10+ km)
Ceiling: 600 feet AGL
Clouds: scattered clouds at 100 feet AGL
broken clouds at 600 feet AGL
Weather: no significant weather observed at this time

METAR text: SBCT 260100Z 04004KT 010V070 9999 FEW004 BKN009 20/20 Q1012
Conditions at: SBCT (CURITIBA/AFONSO , BR) observed 0100 UTC 26 February 2020
Temperature: 20.0°C (68°F)
Dewpoint: 20.0°C (68°F) [RH = 100%]
Pressure (altimeter): 29.88 inches Hg (1012.0 mb)
Winds: from the NE (40 degrees) at 5 MPH (4 knots; 2.1 m/s)
Visibility: 6 or more miles (10+ km)
Ceiling: 900 feet AGL
Clouds: few clouds at 400 feet AGL
broken clouds at 900 feet AGL
Weather: no significant weather observed at this time

METAR text: SBCT 260040Z 06003KT 7000 BKN008 20/20 Q1014
Conditions at: SBCT (CURITIBA/AFONSO , BR) observed 0040 UTC 26 February 2020
Temperature: 20.0°C (68°F)
Dewpoint: 20.0°C (68°F) [RH = 100%]
Pressure (altimeter): 29.94 inches Hg (1014.0 mb)
Winds: from the ENE (60 degrees) at 3 MPH (3 knots; 1.5 m/s)
Visibility: 4 miles ( 7 km)
Ceiling: 800 feet AGL
Clouds: broken clouds at 800 feet AGL
Weather: no significant weather observed at this time

METAR text: SBCT 260000Z 36002KT 9999 -RA SCT010 BKN083 20/20 Q1015
Conditions at: SBCT (CURITIBA/AFONSO , BR) observed 0000 UTC 26 February 2020
Temperature: 20.0°C (68°F)
Dewpoint: 20.0°C (68°F) [RH = 100%]
Pressure (altimeter): 29.97 inches Hg (1015.0 mb)
Winds: from the N (360 degrees) at 2 MPH (2 knots; 1.0 m/s)
Visibility: 6 or more miles (10+ km)
Ceiling: 8300 feet AGL
Clouds: scattered clouds at 1000 feet AGL
broken clouds at 8300 feet AGL
Weather: -RA  (light rain)

METAR text: SBCT 252300Z 13002KT 9999 FEW009 BKN083 20/20 Q1014
Conditions at: SBCT (CURITIBA/AFONSO , BR) observed 2300 UTC 25 February 2020
Temperature: 20.0°C (68°F)
Dewpoint: 20.0°C (68°F) [RH = 100%]
Pressure (altimeter): 29.94 inches Hg (1014.0 mb)
Winds: from the SE (130 degrees) at 2 MPH (2 knots; 1.0 m/s)
Visibility: 6 or more miles (10+ km)
Ceiling: 8300 feet AGL
Clouds: few clouds at 900 feet AGL
broken clouds at 8300 feet AGL
Weather: no significant weather observed at this time

METAR text: SBCT 252200Z 14003KT 9999 SCT009 BKN050 BKN083 20/20 Q1013
Conditions at: SBCT (CURITIBA/AFONSO , BR) observed 2200 UTC 25 February 2020
Temperature: 20.0°C (68°F)
Dewpoint: 20.0°C (68°F) [RH = 100%]
Pressure (altimeter): 29.91 inches Hg (1013.0 mb)
Winds: from the SE (140 degrees) at 3 MPH (3 knots; 1.5 m/s)
Visibility: 6 or more miles (10+ km)
Ceiling: 5000 feet AGL
Clouds: scattered clouds at 900 feet AGL
broken clouds at 5000 feet AGL
broken clouds at 8300 feet AGL
Weather: no significant weather observed at this time

METAR text: SBCT 252100Z 18004KT 9999 SCT006 BKN050 21/21 Q1014
Conditions at: SBCT (CURITIBA/AFONSO , BR) observed 2100 UTC 25 February 2020
Temperature: 21.0°C (70°F)
Dewpoint: 21.0°C (70°F) [RH = 100%]
Pressure (altimeter): 29.94 inches Hg (1014.0 mb)
Winds: from the S (180 degrees) at 5 MPH (4 knots; 2.1 m/s)
Visibility: 6 or more miles (10+ km)
Ceiling: 5000 feet AGL
Clouds: scattered clouds at 600 feet AGL
broken clouds at 5000 feet AGL
Weather: no significant weather observed at this time

METAR text: SBCT 252000Z 30002KT 9999 FEW009 BKN045 BKN070 22/21 Q1014
Conditions at: SBCT (CURITIBA/AFONSO , BR) observed 2000 UTC 25 February 2020
Temperature: 22.0°C (72°F)
Dewpoint: 21.0°C (70°F) [RH = 94%]
Pressure (altimeter): 29.94 inches Hg (1014.0 mb)
Winds: from the WNW (300 degrees) at 2 MPH (2 knots; 1.0 m/s)
Visibility: 6 or more miles (10+ km)
Ceiling: 4500 feet AGL
Clouds: few clouds at 900 feet AGL
broken clouds at 4500 feet AGL
broken clouds at 7000 feet AGL
Weather: no significant weather observed at this time

METAR text: SBCT 251930Z 33002KT 9999 SCT009 BKN040 BKN083 21/20 Q1014
Conditions at: SBCT (CURITIBA/AFONSO , BR) observed 1930 UTC 25 February 2020
Temperature: 21.0°C (70°F)
Dewpoint: 20.0°C (68°F) [RH = 94%]
Pressure (altimeter): 29.94 inches Hg (1014.0 mb)
Winds: from the NNW (330 degrees) at 2 MPH (2 knots; 1.0 m/s)
Visibility: 6 or more miles (10+ km)
Ceiling: 4000 feet AGL
Clouds: scattered clouds at 900 feet AGL
broken clouds at 4000 feet AGL
broken clouds at 8300 feet AGL
Weather: no significant weather observed at this time

Forecast for: SBCT (CURITIBA/AFONSO , BR)
Text: TAF SBCT 270200Z 2706/2806 11007KT 9999 BKN006 TN13/2708Z TX23/2717Z
Forecast period: 0600 to 1100 UTC 27 February 2020
Forecast type: FROM: standard forecast or significant change
Winds: from the ESE (110 degrees) at 8 MPH (7 knots; 3.6 m/s)
Visibility: 6 or more miles 10+ km)
Ceiling: 600 feet AGL
Clouds: broken clouds at 600 feet AGL
Weather: no significant weather forecast for this period
Text: PROB40 2706/2711 0800 FG BKN002
Forecast period: 0600 to 1100 UTC 27 February 2020
Forecast type: PROBABLE: 40 percent likelihood of the following during this time
Visibility: 0.50 miles (0.80 km)
Ceiling: 200 feet AGL
Clouds: broken clouds at 200 feet AGL
Weather: FG  (fog)
Text: BECMG 2711/2713 BKN012
Forecast period: 1100 to 1300 UTC 27 February 2020
Forecast type: BECOMING: Conditions expected to become as follows by 1300 UTC 27 February 2020
Winds: from the ESE (110 degrees) at 8 MPH (7 knots; 3.6 m/s)
Visibility: 6 or more miles 10+ km)
Ceiling: 1200 feet AGL
Clouds: broken clouds at 1200 feet AGL
Weather: no significant weather forecast for this period
Text: BECMG 2713/2715 SCT035
Forecast period: 1300 to 1700 UTC 27 February 2020
Forecast type: BECOMING: Conditions expected to become as follows by 1500 UTC 27 February 2020
Winds: from the ESE (110 degrees) at 8 MPH (7 knots; 3.6 m/s)
Visibility: 6 or more miles 10+ km)
Ceiling: at least 12,000 feet AGL
Clouds: scattered clouds at 3500 feet AGL
Weather: no significant weather forecast for this period
Text: BECMG 2717/2719 FEW020
Forecast period: 1700 to 2100 UTC 27 February 2020
Forecast type: BECOMING: Conditions expected to become as follows by 1900 UTC 27 February 2020
Winds: from the ESE (110 degrees) at 8 MPH (7 knots; 3.6 m/s)
Visibility: 6 or more miles 10+ km)
Ceiling: at least 12,000 feet AGL
Clouds: few clouds at 2000 feet AGL
Weather: no significant weather forecast for this period
Text: BECMG 2721/2723 BKN010
Forecast period: 2100 UTC 27 February 2020 to 0100 UTC 28 February 2020
Forecast type: BECOMING: Conditions expected to become as follows by 2300 UTC 27 February 2020
Winds: from the ESE (110 degrees) at 8 MPH (7 knots; 3.6 m/s)
Visibility: 6 or more miles 10+ km)
Ceiling: 1000 feet AGL
Clouds: broken clouds at 1000 feet AGL
Weather: no significant weather forecast for this period
Text: BECMG 2801/2803 08003KT BKN005 RMK PDW
Forecast period: 0100 to 0600 UTC 28 February 2020
Forecast type: BECOMING: Conditions expected to become as follows by 0300 UTC 28 February 2020
Winds: from the E (80 degrees) at 3 MPH (3 knots; 1.5 m/s)
Visibility: 6 or more miles 10+ km)
Ceiling: 500 feet AGL
Clouds: broken clouds at 500 feet AGL
Weather: no significant weather forecast for this period